sensor_id;sensor_type;location;lat;lon;timestamp;temperature;humidity
35668;DHT22;22158;59.280;17.806;2024-02-23T00:01:59;4.00;99.90
35668;DHT22;22158;59.280;17.806;2024-02-23T00:04:25;4.00;99.90
35668;DHT22;22158;59.280;17.806;2024-02-23T00:06:51;4.00;99.90
35668;DHT22;22158;59.280;17.806;2024-02-23T00:09:17;3.90;99.90
35668;DHT22;22158;59.280;17.806;2024-02-23T00:11:42;3.90;99.90
35668;DHT22;22158;59.280;17.806;2024-02-23T00:14:13;3.90;99.90
35668;DHT22;22158;59.280;17.806;2024-02-23T00:16:41;3.90;99.90
35668;DHT22;22158;59.280;17.806;2024-02-23T00:19:08;3.90;99.90
35668;DHT22;22158;59.280;17.806;2024-02-23T00:21:37;3.90;99.90
35668;DHT22;22158;59.280;17.806;2024-02-23T00:24:04;4.00;99.90
35668;DHT22;22158;59.280;17.806;2024-02-23T00:26:29;3.90;99.90
35668;DHT22;22158;59.280;17.806;2024-02-23T00:28:55;3.90;99.90
35668;DHT22;22158;59.280;17.806;2024-02-23T00:31:21;4.00;99.90
35668;DHT22;22158;59.280;17.806;2024-02-23T00:33:47;4.00;99.90
35668;DHT22;22158;59.280;17.806;2024-02-23T00:36:13;3.90;99.90
35668;DHT22;22158;59.280;17.806;2024-02-23T00:38:39;3.90;99.90
35668;DHT22;22158;59.280;17.806;2024-02-23T00:41:05;3.90;99.90
35668;DHT22;22158;59.280;17.806;2024-02-23T00:43:40;3.90;99.90
35668;DHT22;22158;59.280;17.806;2024-02-23T00:46:09;3.90;99.90
35668;DHT22;22158;59.280;17.806;2024-02-23T00:48:35;3.90;99.90
35668;DHT22;22158;59.280;17.806;2024-02-23T00:51:02;4.00;99.90
35668;DHT22;22158;59.280;17.806;2024-02-23T00:53:28;3.90;99.90
35668;DHT22;22158;59.280;17.806;2024-02-23T00:55:54;4.00;99.90
35668;DHT22;22158;59.280;17.806;2024-02-23T00:58:20;4.00;99.90
35668;DHT22;22158;59.280;17.806;2024-02-23T01:00:45;4.00;99.90
35668;DHT22;22158;59.280;17.806;2024-02-23T01:03:11;4.00;99.90
35668;DHT22;22158;59.280;17.806;2024-02-23T01:05:37;3.90;99.90
35668;DHT22;22158;59.280;17.806;2024-02-23T01:08:04;4.00;99.90
35668;DHT22;22158;59.280;17.806;2024-02-23T01:10:29;3.90;99.90
35668;DHT22;22158;59.280;17.806;2024-02-23T01:12:55;3.90;99.90
35668;DHT22;22158;59.280;17.806;2024-02-23T01:15:21;3.90;99.90
35668;DHT22;22158;59.280;17.806;2024-02-23T01:17:46;3.90;99.90
35668;DHT22;22158;59.280;17.806;2024-02-23T01:20:13;3.90;99.90
35668;DHT22;22158;59.280;17.806;2024-02-23T01:22:38;3.90;99.90
35668;DHT22;22158;59.280;17.806;2024-02-23T01:25:05;3.90;99.90
35668;DHT22;22158;59.280;17.806;2024-02-23T01:27:30;3.90;99.90
35668;DHT22;22158;59.280;17.806;2024-02-23T01:29:56;3.90;99.90
35668;DHT22;22158;59.280;17.806;2024-02-23T01:32:22;4.00;99.90
35668;DHT22;22158;59.280;17.806;2024-02-23T01:34:48;3.90;99.90
35668;DHT22;22158;59.280;17.806;2024-02-23T01:37:13;3.90;99.90
35668;DHT22;22158;59.280;17.806;2024-02-23T01:39:40;3.90;99.90
35668;DHT22;22158;59.280;17.806;2024-02-23T01:42:05;4.00;99.90
35668;DHT22;22158;59.280;17.806;2024-02-23T01:44:31;4.00;99.90
35668;DHT22;22158;59.280;17.806;2024-02-23T01:46:57;4.00;99.90
35668;DHT22;22158;59.280;17.806;2024-02-23T01:49:22;4.00;99.90
35668;DHT22;22158;59.280;17.806;2024-02-23T01:51:56;4.00;99.90
35668;DHT22;22158;59.280;17.806;2024-02-23T01:54:22;3.90;99.90
35668;DHT22;22158;59.280;17.806;2024-02-23T01:56:48;4.00;99.90
35668;DHT22;22158;59.280;17.806;2024-02-23T01:59:14;4.00;99.90
35668;DHT22;22158;59.280;17.806;2024-02-23T02:01:43;4.00;99.90
35668;DHT22;22158;59.280;17.806;2024-02-23T02:04:09;4.00;99.90
35668;DHT22;22158;59.280;17.806;2024-02-23T02:06:34;4.00;99.90
35668;DHT22;22158;59.280;17.806;2024-02-23T02:09:00;4.00;99.90
35668;DHT22;22158;59.280;17.806;2024-02-23T02:11:26;4.00;99.90
35668;DHT22;22158;59.280;17.806;2024-02-23T02:13:52;4.00;99.90
35668;DHT22;22158;59.280;17.806;2024-02-23T02:16:17;4.00;99.90
35668;DHT22;22158;59.280;17.806;2024-02-23T02:18:43;4.10;99.90
35668;DHT22;22158;59.280;17.806;2024-02-23T02:21:10;4.00;99.90
35668;DHT22;22158;59.280;17.806;2024-02-23T02:23:35;4.10;99.90
35668;DHT22;22158;59.280;17.806;2024-02-23T02:26:02;4.10;99.90
35668;DHT22;22158;59.280;17.806;2024-02-23T02:28:28;4.00;99.90
35668;DHT22;22158;59.280;17.806;2024-02-23T02:30:54;4.10;99.90
35668;DHT22;22158;59.280;17.806;2024-02-23T02:33:20;4.10;99.90
35668;DHT22;22158;59.280;17.806;2024-02-23T02:35:46;4.00;99.90
35668;DHT22;22158;59.280;17.806;2024-02-23T02:38:12;4.00;99.90
35668;DHT22;22158;59.280;17.806;2024-02-23T02:40:38;4.10;99.90
35668;DHT22;22158;59.280;17.806;2024-02-23T02:43:04;4.10;99.90
35668;DHT22;22158;59.280;17.806;2024-02-23T02:45:30;4.10;99.90
35668;DHT22;22158;59.280;17.806;2024-02-23T02:47:55;4.10;99.90
35668;DHT22;22158;59.280;17.806;2024-02-23T02:50:22;4.10;99.90
35668;DHT22;22158;59.280;17.806;2024-02-23T02:52:48;4.10;99.90
35668;DHT22;22158;59.280;17.806;2024-02-23T02:55:13;4.10;99.90
35668;DHT22;22158;59.280;17.806;2024-02-23T02:57:39;4.10;99.90
35668;DHT22;22158;59.280;17.806;2024-02-23T03:00:05;4.10;99.90
35668;DHT22;22158;59.280;17.806;2024-02-23T03:02:40;4.10;99.90
35668;DHT22;22158;59.280;17.806;2024-02-23T03:05:06;4.10;99.90
35668;DHT22;22158;59.280;17.806;2024-02-23T03:07:32;4.10;99.90
35668;DHT22;22158;59.280;17.806;2024-02-23T03:09:57;4.10;99.90
35668;DHT22;22158;59.280;17.806;2024-02-23T03:12:23;4.10;99.90
35668;DHT22;22158;59.280;17.806;2024-02-23T03:14:49;4.10;99.90
35668;DHT22;22158;59.280;17.806;2024-02-23T03:17:15;4.10;99.90
35668;DHT22;22158;59.280;17.806;2024-02-23T03:19:41;4.10;99.90
35668;DHT22;22158;59.280;17.806;2024-02-23T03:22:06;4.10;99.90
35668;DHT22;22158;59.280;17.806;2024-02-23T03:24:33;4.10;99.90
35668;DHT22;22158;59.280;17.806;2024-02-23T03:26:58;4.10;99.90
35668;DHT22;22158;59.280;17.806;2024-02-23T03:29:24;4.10;99.90
35668;DHT22;22158;59.280;17.806;2024-02-23T03:31:50;4.10;99.90
35668;DHT22;22158;59.280;17.806;2024-02-23T03:34:16;4.00;99.90
35668;DHT22;22158;59.280;17.806;2024-02-23T03:36:42;4.00;99.90
35668;DHT22;22158;59.280;17.806;2024-02-23T03:39:08;4.10;99.90
35668;DHT22;22158;59.280;17.806;2024-02-23T03:41:34;4.10;99.90
35668;DHT22;22158;59.280;17.806;2024-02-23T03:43:59;4.10;99.90
35668;DHT22;22158;59.280;17.806;2024-02-23T03:46:25;4.10;99.90
35668;DHT22;22158;59.280;17.806;2024-02-23T03:48:51;4.10;99.90
35668;DHT22;22158;59.280;17.806;2024-02-23T03:51:17;4.10;99.90
35668;DHT22;22158;59.280;17.806;2024-02-23T03:53:43;4.10;99.90
35668;DHT22;22158;59.280;17.806;2024-02-23T03:56:09;4.10;99.90
35668;DHT22;22158;59.280;17.806;2024-02-23T03:58:34;4.10;99.90
35668;DHT22;22158;59.280;17.806;2024-02-23T04:01:00;4.20;99.90
35668;DHT22;22158;59.280;17.806;2024-02-23T04:03:26;4.20;99.90
35668;DHT22;22158;59.280;17.806;2024-02-23T04:05:52;4.20;99.90
35668;DHT22;22158;59.280;17.806;2024-02-23T04:08:17;4.20;99.90
35668;DHT22;22158;59.280;17.806;2024-02-23T04:10:43;4.10;99.90
35668;DHT22;22158;59.280;17.806;2024-02-23T04:13:09;4.10;99.90
35668;DHT22;22158;59.280;17.806;2024-02-23T04:15:35;4.10;99.90
35668;DHT22;22158;59.280;17.806;2024-02-23T04:18:01;4.10;99.90
35668;DHT22;22158;59.280;17.806;2024-02-23T04:20:27;4.10;99.90
35668;DHT22;22158;59.280;17.806;2024-02-23T04:22:52;4.20;99.90
35668;DHT22;22158;59.280;17.806;2024-02-23T04:25:18;4.10;99.90
35668;DHT22;22158;59.280;17.806;2024-02-23T04:27:44;4.10;99.90
35668;DHT22;22158;59.280;17.806;2024-02-23T04:30:10;4.10;99.90
35668;DHT22;22158;59.280;17.806;2024-02-23T04:32:36;4.10;99.90
35668;DHT22;22158;59.280;17.806;2024-02-23T04:35:02;4.10;99.90
35668;DHT22;22158;59.280;17.806;2024-02-23T04:37:27;4.10;99.90
35668;DHT22;22158;59.280;17.806;2024-02-23T04:39:53;4.20;99.90
35668;DHT22;22158;59.280;17.806;2024-02-23T04:42:19;4.20;99.90
35668;DHT22;22158;59.280;17.806;2024-02-23T04:44:44;4.20;99.90
35668;DHT22;22158;59.280;17.806;2024-02-23T04:47:11;4.20;99.90
35668;DHT22;22158;59.280;17.806;2024-02-23T04:49:37;4.20;99.90
35668;DHT22;22158;59.280;17.806;2024-02-23T04:52:04;4.20;99.90
35668;DHT22;22158;59.280;17.806;2024-02-23T04:54:30;4.20;99.90
35668;DHT22;22158;59.280;17.806;2024-02-23T04:56:56;4.20;99.90
35668;DHT22;22158;59.280;17.806;2024-02-23T04:59:21;4.20;99.90
35668;DHT22;22158;59.280;17.806;2024-02-23T05:01:47;4.20;99.90
35668;DHT22;22158;59.280;17.806;2024-02-23T05:04:13;4.20;99.90
35668;DHT22;22158;59.280;17.806;2024-02-23T05:06:38;4.30;99.90
35668;DHT22;22158;59.280;17.806;2024-02-23T05:09:04;4.30;99.90
35668;DHT22;22158;59.280;17.806;2024-02-23T05:11:34;4.30;99.90
35668;DHT22;22158;59.280;17.806;2024-02-23T05:14:00;4.30;99.90
35668;DHT22;22158;59.280;17.806;2024-02-23T05:16:26;4.30;99.90
35668;DHT22;22158;59.280;17.806;2024-02-23T05:18:51;4.30;99.90
35668;DHT22;22158;59.280;17.806;2024-02-23T05:21:17;4.30;99.90
35668;DHT22;22158;59.280;17.806;2024-02-23T05:23:43;4.30;99.90
35668;DHT22;22158;59.280;17.806;2024-02-23T05:26:09;4.30;99.90
35668;DHT22;22158;59.280;17.806;2024-02-23T05:28:36;4.30;99.90
35668;DHT22;22158;59.280;17.806;2024-02-23T05:31:02;4.30;99.90
35668;DHT22;22158;59.280;17.806;2024-02-23T05:33:29;4.30;99.90
35668;DHT22;22158;59.280;17.806;2024-02-23T05:35:55;4.30;99.90
35668;DHT22;22158;59.280;17.806;2024-02-23T05:38:20;4.30;99.90
35668;DHT22;22158;59.280;17.806;2024-02-23T05:40:46;4.30;99.90
35668;DHT22;22158;59.280;17.806;2024-02-23T05:43:13;4.30;99.90
35668;DHT22;22158;59.280;17.806;2024-02-23T05:45:39;4.40;99.90
35668;DHT22;22158;59.280;17.806;2024-02-23T05:48:05;4.30;99.90
35668;DHT22;22158;59.280;17.806;2024-02-23T05:50:32;4.40;99.90
35668;DHT22;22158;59.280;17.806;2024-02-23T05:52:57;4.40;99.90
35668;DHT22;22158;59.280;17.806;2024-02-23T05:55:23;4.40;99.90
35668;DHT22;22158;59.280;17.806;2024-02-23T05:57:49;4.30;99.90
35668;DHT22;22158;59.280;17.806;2024-02-23T06:00:16;4.40;99.90
35668;DHT22;22158;59.280;17.806;2024-02-23T06:02:45;4.40;99.90
35668;DHT22;22158;59.280;17.806;2024-02-23T06:05:12;4.40;99.90
35668;DHT22;22158;59.280;17.806;2024-02-23T06:07:38;4.40;99.90
35668;DHT22;22158;59.280;17.806;2024-02-23T06:10:04;4.40;99.90
35668;DHT22;22158;59.280;17.806;2024-02-23T06:12:30;4.40;99.90
35668;DHT22;22158;59.280;17.806;2024-02-23T06:14:56;4.40;99.90
35668;DHT22;22158;59.280;17.806;2024-02-23T06:17:23;4.40;99.90
35668;DHT22;22158;59.280;17.806;2024-02-23T06:19:49;4.40;99.90
35668;DHT22;22158;59.280;17.806;2024-02-23T06:22:15;4.40;99.90
35668;DHT22;22158;59.280;17.806;2024-02-23T06:24:49;4.40;99.90
35668;DHT22;22158;59.280;17.806;2024-02-23T06:27:15;4.40;99.90
35668;DHT22;22158;59.280;17.806;2024-02-23T06:29:40;4.50;99.90
35668;DHT22;22158;59.280;17.806;2024-02-23T06:32:06;4.50;99.90
35668;DHT22;22158;59.280;17.806;2024-02-23T06:34:32;4.50;99.90
35668;DHT22;22158;59.280;17.806;2024-02-23T06:36:57;4.50;99.90
35668;DHT22;22158;59.280;17.806;2024-02-23T06:39:23;4.50;99.90
35668;DHT22;22158;59.280;17.806;2024-02-23T06:41:49;4.50;99.90
35668;DHT22;22158;59.280;17.806;2024-02-23T06:44:14;4.60;99.90
35668;DHT22;22158;59.280;17.806;2024-02-23T06:46:40;4.60;99.90
35668;DHT22;22158;59.280;17.806;2024-02-23T06:49:07;4.60;99.90
35668;DHT22;22158;59.280;17.806;2024-02-23T06:51:32;4.60;99.90
35668;DHT22;22158;59.280;17.806;2024-02-23T06:53:58;4.60;99.90
35668;DHT22;22158;59.280;17.806;2024-02-23T06:56:24;4.60;99.90
35668;DHT22;22158;59.280;17.806;2024-02-23T06:58:49;4.70;99.90
35668;DHT22;22158;59.280;17.806;2024-02-23T07:01:15;4.70;99.90
35668;DHT22;22158;59.280;17.806;2024-02-23T07:03:41;4.70;99.90
35668;DHT22;22158;59.280;17.806;2024-02-23T07:06:08;4.70;99.90
35668;DHT22;22158;59.280;17.806;2024-02-23T07:08:37;4.70;99.90
35668;DHT22;22158;59.280;17.806;2024-02-23T07:11:03;4.70;99.90
35668;DHT22;22158;59.280;17.806;2024-02-23T07:13:29;4.80;99.90
35668;DHT22;22158;59.280;17.806;2024-02-23T07:15:55;4.80;99.90
35668;DHT22;22158;59.280;17.806;2024-02-23T07:18:22;4.80;99.90
35668;DHT22;22158;59.280;17.806;2024-02-23T07:20:47;4.80;99.90
35668;DHT22;22158;59.280;17.806;2024-02-23T07:23:13;4.80;99.90
35668;DHT22;22158;59.280;17.806;2024-02-23T07:25:41;4.80;99.90
35668;DHT22;22158;59.280;17.806;2024-02-23T07:28:07;4.80;99.90
35668;DHT22;22158;59.280;17.806;2024-02-23T07:30:33;4.80;99.90
35668;DHT22;22158;59.280;17.806;2024-02-23T07:33:00;4.90;99.90
35668;DHT22;22158;59.280;17.806;2024-02-23T07:35:26;4.90;99.90
35668;DHT22;22158;59.280;17.806;2024-02-23T07:37:52;4.90;99.90
35668;DHT22;22158;59.280;17.806;2024-02-23T07:40:17;4.90;99.90
35668;DHT22;22158;59.280;17.806;2024-02-23T07:42:43;4.90;99.90
35668;DHT22;22158;59.280;17.806;2024-02-23T07:45:09;4.90;99.90
35668;DHT22;22158;59.280;17.806;2024-02-23T07:47:36;4.90;99.90
35668;DHT22;22158;59.280;17.806;2024-02-23T07:50:01;4.90;99.90
35668;DHT22;22158;59.280;17.806;2024-02-23T07:52:27;4.90;99.90
35668;DHT22;22158;59.280;17.806;2024-02-23T07:54:53;4.90;99.90
35668;DHT22;22158;59.280;17.806;2024-02-23T07:57:19;4.90;99.90
35668;DHT22;22158;59.280;17.806;2024-02-23T07:59:45;4.90;99.90
35668;DHT22;22158;59.280;17.806;2024-02-23T08:02:10;5.00;99.90
35668;DHT22;22158;59.280;17.806;2024-02-23T08:04:36;5.00;99.90
35668;DHT22;22158;59.280;17.806;2024-02-23T08:07:03;5.00;99.90
35668;DHT22;22158;59.280;17.806;2024-02-23T08:09:29;5.00;99.90
35668;DHT22;22158;59.280;17.806;2024-02-23T08:11:55;5.10;99.90
35668;DHT22;22158;59.280;17.806;2024-02-23T08:14:21;5.00;99.90
35668;DHT22;22158;59.280;17.806;2024-02-23T08:16:46;5.10;99.90
35668;DHT22;22158;59.280;17.806;2024-02-23T08:19:12;5.10;99.90
35668;DHT22;22158;59.280;17.806;2024-02-23T08:21:38;5.10;99.90
35668;DHT22;22158;59.280;17.806;2024-02-23T08:24:04;5.10;99.90
35668;DHT22;22158;59.280;17.806;2024-02-23T08:26:30;5.10;99.90
35668;DHT22;22158;59.280;17.806;2024-02-23T08:28:56;5.10;99.90
35668;DHT22;22158;59.280;17.806;2024-02-23T08:31:21;5.10;99.90
35668;DHT22;22158;59.280;17.806;2024-02-23T08:33:47;5.10;99.90
35668;DHT22;22158;59.280;17.806;2024-02-23T08:36:13;5.20;99.90
35668;DHT22;22158;59.280;17.806;2024-02-23T08:38:38;5.20;99.90
35668;DHT22;22158;59.280;17.806;2024-02-23T08:41:04;5.20;99.90
35668;DHT22;22158;59.280;17.806;2024-02-23T08:43:30;5.20;99.90
35668;DHT22;22158;59.280;17.806;2024-02-23T08:45:55;5.20;99.90
35668;DHT22;22158;59.280;17.806;2024-02-23T08:48:21;5.20;99.90
35668;DHT22;22158;59.280;17.806;2024-02-23T08:50:47;5.30;99.90
35668;DHT22;22158;59.280;17.806;2024-02-23T08:53:12;5.30;99.90
35668;DHT22;22158;59.280;17.806;2024-02-23T08:55:38;5.30;99.90
35668;DHT22;22158;59.280;17.806;2024-02-23T08:58:04;5.30;99.90
35668;DHT22;22158;59.280;17.806;2024-02-23T09:00:31;5.30;99.90
35668;DHT22;22158;59.280;17.806;2024-02-23T09:02:57;5.40;99.90
35668;DHT22;22158;59.280;17.806;2024-02-23T09:05:23;5.40;99.90
35668;DHT22;22158;59.280;17.806;2024-02-23T09:07:49;5.40;99.90
35668;DHT22;22158;59.280;17.806;2024-02-23T09:10:14;5.50;99.90
35668;DHT22;22158;59.280;17.806;2024-02-23T09:12:40;5.50;99.90
35668;DHT22;22158;59.280;17.806;2024-02-23T09:15:06;5.60;99.90
35668;DHT22;22158;59.280;17.806;2024-02-23T09:17:33;5.70;99.90
35668;DHT22;22158;59.280;17.806;2024-02-23T09:19:58;5.70;99.90
35668;DHT22;22158;59.280;17.806;2024-02-23T09:22:24;5.70;99.90
35668;DHT22;22158;59.280;17.806;2024-02-23T09:24:50;5.70;99.90
35668;DHT22;22158;59.280;17.806;2024-02-23T09:27:15;5.70;99.90
35668;DHT22;22158;59.280;17.806;2024-02-23T09:29:41;5.80;99.90
35668;DHT22;22158;59.280;17.806;2024-02-23T09:32:07;5.80;99.90
35668;DHT22;22158;59.280;17.806;2024-02-23T09:34:33;5.80;99.90
35668;DHT22;22158;59.280;17.806;2024-02-23T09:36:59;5.90;99.90
35668;DHT22;22158;59.280;17.806;2024-02-23T09:39:24;5.80;99.90
35668;DHT22;22158;59.280;17.806;2024-02-23T09:41:54;5.80;99.90
35668;DHT22;22158;59.280;17.806;2024-02-23T09:44:20;5.80;99.90
35668;DHT22;22158;59.280;17.806;2024-02-23T09:46:48;5.80;99.90
35668;DHT22;22158;59.280;17.806;2024-02-23T09:49:15;5.80;99.90
35668;DHT22;22158;59.280;17.806;2024-02-23T09:51:43;5.90;99.90
35668;DHT22;22158;59.280;17.806;2024-02-23T09:54:09;5.90;99.90
35668;DHT22;22158;59.280;17.806;2024-02-23T09:56:35;5.90;99.90
35668;DHT22;22158;59.280;17.806;2024-02-23T09:59:03;5.80;99.90
35668;DHT22;22158;59.280;17.806;2024-02-23T10:01:31;5.80;99.90
35668;DHT22;22158;59.280;17.806;2024-02-23T10:04:00;5.80;99.90
35668;DHT22;22158;59.280;17.806;2024-02-23T10:06:27;5.90;99.90
35668;DHT22;22158;59.280;17.806;2024-02-23T10:08:53;5.80;99.90
35668;DHT22;22158;59.280;17.806;2024-02-23T10:11:22;5.80;99.90
35668;DHT22;22158;59.280;17.806;2024-02-23T10:13:49;5.80;99.90
35668;DHT22;22158;59.280;17.806;2024-02-23T10:16:21;5.80;99.90
35668;DHT22;22158;59.280;17.806;2024-02-23T10:18:48;5.80;99.90
35668;DHT22;22158;59.280;17.806;2024-02-23T10:21:15;5.90;99.90
35668;DHT22;22158;59.280;17.806;2024-02-23T10:23:41;5.90;99.90
35668;DHT22;22158;59.280;17.806;2024-02-23T10:26:07;5.90;99.90
35668;DHT22;22158;59.280;17.806;2024-02-23T10:28:35;6.10;99.90
35668;DHT22;22158;59.280;17.806;2024-02-23T10:31:02;6.10;99.90
35668;DHT22;22158;59.280;17.806;2024-02-23T10:33:28;6.10;99.90
35668;DHT22;22158;59.280;17.806;2024-02-23T10:35:56;6.20;99.90
35668;DHT22;22158;59.280;17.806;2024-02-23T10:38:26;6.20;99.90
35668;DHT22;22158;59.280;17.806;2024-02-23T10:40:57;6.30;99.90
35668;DHT22;22158;59.280;17.806;2024-02-23T10:43:41;6.30;99.90
35668;DHT22;22158;59.280;17.806;2024-02-23T10:46:10;6.40;99.90
35668;DHT22;22158;59.280;17.806;2024-02-23T10:48:40;6.50;99.90
35668;DHT22;22158;59.280;17.806;2024-02-23T10:51:07;6.50;99.90
35668;DHT22;22158;59.280;17.806;2024-02-23T10:53:34;6.50;99.90
35668;DHT22;22158;59.280;17.806;2024-02-23T10:56:00;6.50;99.90
35668;DHT22;22158;59.280;17.806;2024-02-23T10:58:26;6.60;99.90
35668;DHT22;22158;59.280;17.806;2024-02-23T11:00:57;6.70;99.90
35668;DHT22;22158;59.280;17.806;2024-02-23T11:03:28;6.80;99.90
35668;DHT22;22158;59.280;17.806;2024-02-23T11:05:54;6.90;99.90
35668;DHT22;22158;59.280;17.806;2024-02-23T11:08:20;6.90;99.90
35668;DHT22;22158;59.280;17.806;2024-02-23T11:10:51;6.90;99.90
35668;DHT22;22158;59.280;17.806;2024-02-23T11:13:17;7.00;99.90
35668;DHT22;22158;59.280;17.806;2024-02-23T11:15:43;7.10;99.90
35668;DHT22;22158;59.280;17.806;2024-02-23T11:18:42;7.00;99.90
35668;DHT22;22158;59.280;17.806;2024-02-23T11:21:09;7.10;99.90
35668;DHT22;22158;59.280;17.806;2024-02-23T11:23:42;7.10;99.90
35668;DHT22;22158;59.280;17.806;2024-02-23T11:26:12;7.10;99.90
35668;DHT22;22158;59.280;17.806;2024-02-23T11:28:47;7.10;99.90
35668;DHT22;22158;59.280;17.806;2024-02-23T11:31:14;7.20;99.90
35668;DHT22;22158;59.280;17.806;2024-02-23T11:33:47;7.20;99.90
35668;DHT22;22158;59.280;17.806;2024-02-23T11:36:22;7.20;99.90
35668;DHT22;22158;59.280;17.806;2024-02-23T11:38:49;7.30;99.90
35668;DHT22;22158;59.280;17.806;2024-02-23T11:41:15;7.30;99.90
35668;DHT22;22158;59.280;17.806;2024-02-23T11:43:41;7.30;99.90
35668;DHT22;22158;59.280;17.806;2024-02-23T11:46:07;7.30;99.90
35668;DHT22;22158;59.280;17.806;2024-02-23T11:48:33;7.30;99.90
35668;DHT22;22158;59.280;17.806;2024-02-23T11:50:59;7.30;99.90
35668;DHT22;22158;59.280;17.806;2024-02-23T11:53:25;7.40;99.90
35668;DHT22;22158;59.280;17.806;2024-02-23T11:55:52;7.40;99.90
35668;DHT22;22158;59.280;17.806;2024-02-23T11:58:18;7.50;99.90
35668;DHT22;22158;59.280;17.806;2024-02-23T12:00:44;7.40;99.90
35668;DHT22;22158;59.280;17.806;2024-02-23T12:03:11;7.30;99.90
35668;DHT22;22158;59.280;17.806;2024-02-23T12:05:37;7.30;99.90
35668;DHT22;22158;59.280;17.806;2024-02-23T12:08:03;7.30;99.90
35668;DHT22;22158;59.280;17.806;2024-02-23T12:10:30;7.40;99.90
35668;DHT22;22158;59.280;17.806;2024-02-23T12:12:56;7.40;99.90
35668;DHT22;22158;59.280;17.806;2024-02-23T12:15:21;7.50;99.90
35668;DHT22;22158;59.280;17.806;2024-02-23T12:17:50;7.50;99.90
35668;DHT22;22158;59.280;17.806;2024-02-23T12:20:16;7.50;99.90
35668;DHT22;22158;59.280;17.806;2024-02-23T12:22:42;7.50;99.90
35668;DHT22;22158;59.280;17.806;2024-02-23T12:25:08;7.50;99.90
35668;DHT22;22158;59.280;17.806;2024-02-23T12:27:34;7.50;99.90
35668;DHT22;22158;59.280;17.806;2024-02-23T12:29:59;7.50;99.90
35668;DHT22;22158;59.280;17.806;2024-02-23T12:32:25;7.50;99.90
35668;DHT22;22158;59.280;17.806;2024-02-23T12:34:52;7.50;99.90
35668;DHT22;22158;59.280;17.806;2024-02-23T12:37:18;7.50;99.90
35668;DHT22;22158;59.280;17.806;2024-02-23T12:39:44;7.50;99.90
35668;DHT22;22158;59.280;17.806;2024-02-23T12:42:10;7.60;99.90
35668;DHT22;22158;59.280;17.806;2024-02-23T12:44:36;7.50;99.90
35668;DHT22;22158;59.280;17.806;2024-02-23T12:47:02;7.60;99.90
35668;DHT22;22158;59.280;17.806;2024-02-23T12:49:28;7.60;99.90
35668;DHT22;22158;59.280;17.806;2024-02-23T12:51:53;7.50;99.90
35668;DHT22;22158;59.280;17.806;2024-02-23T12:54:19;7.60;99.90
35668;DHT22;22158;59.280;17.806;2024-02-23T12:56:45;7.60;99.90
35668;DHT22;22158;59.280;17.806;2024-02-23T12:59:11;7.60;99.90
35668;DHT22;22158;59.280;17.806;2024-02-23T13:01:37;7.60;99.90
35668;DHT22;22158;59.280;17.806;2024-02-23T13:04:04;7.50;99.90
35668;DHT22;22158;59.280;17.806;2024-02-23T13:06:38;7.60;99.90
35668;DHT22;22158;59.280;17.806;2024-02-23T13:09:05;7.70;99.90
35668;DHT22;22158;59.280;17.806;2024-02-23T13:11:33;7.80;99.90
35668;DHT22;22158;59.280;17.806;2024-02-23T13:13:58;7.70;99.90
35668;DHT22;22158;59.280;17.806;2024-02-23T13:16:24;7.40;99.90
35668;DHT22;22158;59.280;17.806;2024-02-23T13:18:50;7.40;99.90
35668;DHT22;22158;59.280;17.806;2024-02-23T13:21:15;7.50;99.90
35668;DHT22;22158;59.280;17.806;2024-02-23T13:23:41;7.50;99.90
35668;DHT22;22158;59.280;17.806;2024-02-23T13:26:08;7.60;99.90
35668;DHT22;22158;59.280;17.806;2024-02-23T13:28:36;7.60;99.90
35668;DHT22;22158;59.280;17.806;2024-02-23T13:31:02;7.60;99.90
35668;DHT22;22158;59.280;17.806;2024-02-23T13:33:28;7.40;99.90
35668;DHT22;22158;59.280;17.806;2024-02-23T13:35:54;7.40;99.90
35668;DHT22;22158;59.280;17.806;2024-02-23T13:38:20;7.30;99.90
35668;DHT22;22158;59.280;17.806;2024-02-23T13:40:46;7.10;99.90
35668;DHT22;22158;59.280;17.806;2024-02-23T13:43:12;7.20;99.90
35668;DHT22;22158;59.280;17.806;2024-02-23T13:45:51;7.10;99.90
35668;DHT22;22158;59.280;17.806;2024-02-23T13:48:18;7.00;99.90
35668;DHT22;22158;59.280;17.806;2024-02-23T13:50:46;7.00;99.90
35668;DHT22;22158;59.280;17.806;2024-02-23T13:53:12;6.90;99.90
35668;DHT22;22158;59.280;17.806;2024-02-23T13:55:41;6.90;99.90
35668;DHT22;22158;59.280;17.806;2024-02-23T13:58:10;6.80;99.90
35668;DHT22;22158;59.280;17.806;2024-02-23T14:00:35;6.70;99.90
35668;DHT22;22158;59.280;17.806;2024-02-23T14:03:01;6.80;99.90
35668;DHT22;22158;59.280;17.806;2024-02-23T14:05:27;7.00;99.90
35668;DHT22;22158;59.280;17.806;2024-02-23T14:07:53;7.30;99.90
35668;DHT22;22158;59.280;17.806;2024-02-23T14:10:19;7.50;99.90
35668;DHT22;22158;59.280;17.806;2024-02-23T14:12:45;7.60;99.90
35668;DHT22;22158;59.280;17.806;2024-02-23T14:15:11;7.90;99.90
35668;DHT22;22158;59.280;17.806;2024-02-23T14:17:38;8.30;99.90
35668;DHT22;22158;59.280;17.806;2024-02-23T14:20:04;8.50;99.90
35668;DHT22;22158;59.280;17.806;2024-02-23T14:22:30;8.40;99.90
35668;DHT22;22158;59.280;17.806;2024-02-23T14:24:57;8.40;99.90
35668;DHT22;22158;59.280;17.806;2024-02-23T14:27:23;8.60;99.90
35668;DHT22;22158;59.280;17.806;2024-02-23T14:29:49;8.50;99.90
35668;DHT22;22158;59.280;17.806;2024-02-23T14:32:18;8.20;99.90
35668;DHT22;22158;59.280;17.806;2024-02-23T14:34:44;8.40;99.90
35668;DHT22;22158;59.280;17.806;2024-02-23T14:37:10;8.10;99.90
35668;DHT22;22158;59.280;17.806;2024-02-23T14:39:35;8.30;99.90
35668;DHT22;22158;59.280;17.806;2024-02-23T14:42:01;8.00;99.90
35668;DHT22;22158;59.280;17.806;2024-02-23T14:44:27;7.70;99.90
35668;DHT22;22158;59.280;17.806;2024-02-23T14:46:53;7.80;99.90
35668;DHT22;22158;59.280;17.806;2024-02-23T14:49:18;7.60;99.90
35668;DHT22;22158;59.280;17.806;2024-02-23T14:51:44;7.50;99.90
35668;DHT22;22158;59.280;17.806;2024-02-23T14:54:12;7.30;99.90
35668;DHT22;22158;59.280;17.806;2024-02-23T14:56:38;7.20;99.90
35668;DHT22;22158;59.280;17.806;2024-02-23T14:59:05;7.10;99.90
35668;DHT22;22158;59.280;17.806;2024-02-23T15:01:37;7.00;99.90
35668;DHT22;22158;59.280;17.806;2024-02-23T15:04:04;6.70;99.90
35668;DHT22;22158;59.280;17.806;2024-02-23T15:06:31;6.60;99.90
35668;DHT22;22158;59.280;17.806;2024-02-23T15:08:56;6.50;99.90
35668;DHT22;22158;59.280;17.806;2024-02-23T15:11:23;6.40;99.90
35668;DHT22;22158;59.280;17.806;2024-02-23T15:13:49;6.40;99.90
35668;DHT22;22158;59.280;17.806;2024-02-23T15:16:17;6.40;99.90
35668;DHT22;22158;59.280;17.806;2024-02-23T15:18:42;6.30;99.90
35668;DHT22;22158;59.280;17.806;2024-02-23T15:21:08;6.40;99.90
35668;DHT22;22158;59.280;17.806;2024-02-23T15:23:34;6.30;99.90
35668;DHT22;22158;59.280;17.806;2024-02-23T15:25:59;6.10;99.90